Time;durP1;ratioP1;P1;durP2;ratioP2;P2;SDS_P1;SDS_P2;PMS_P1;PMS_P2;Temp;Humidity;BMP_temperature;BMP_pressure;BME280_temperature;BME280_humidity;BME280_pressure;Samples;Min_cycle;Max_cycle;Signal;HPM_P1;HPM_P2
2020/12/13 00:02:25;;;;;;;15.03;7.07;;;;;;;-1.39;83.42;99607.05;1781350;78;21635;-51
2020/12/13 00:04:52;;;;;;;17.30;8.90;;;;;;;-1.40;83.48;99607.49;1780505;78;22104;-49
2020/12/13 00:07:20;;;;;;;23.73;9.80;;;;;;;-1.39;83.51;99612.33;1780134;78;21145;-53
2020/12/13 00:09:47;;;;;;;24.13;9.73;;;;;;;-1.39;83.56;99611.89;1747611;80;21120;-51
2020/12/13 00:12:14;;;;;;;19.83;8.80;;;;;;;-1.37;83.66;99615.41;1743455;80;21211;-50
2020/12/13 00:14:43;;;;;;;18.60;8.93;;;;;;;-1.34;83.66;99619.34;1778883;78;22013;-52
2020/12/13 00:17:10;;;;;;;20.53;9.70;;;;;;;-1.33;83.62;99617.14;1741477;80;21213;-52
2020/12/13 00:19:37;;;;;;;28.67;12.60;;;;;;;-1.35;83.65;99618.02;1784904;78;21138;-51
2020/12/13 00:22:04;;;;;;;27.27;13.03;;;;;;;-1.35;83.69;99617.59;1788560;78;21154;-52
2020/12/13 00:24:32;;;;;;;24.73;11.93;;;;;;;-1.33;83.69;99613.63;1777906;78;21162;-50
2020/12/13 00:26:59;;;;;;;30.83;13.40;;;;;;;-1.32;83.74;99618.91;1781204;78;21152;-52
2020/12/13 00:29:27;;;;;;;26.60;12.67;;;;;;;-1.33;83.77;99619.78;1775717;78;21190;-51
2020/12/13 00:31:54;;;;;;;22.00;10.27;;;;;;;-1.32;83.87;99620.23;1748779;80;21920;-49
2020/12/13 00:34:22;;;;;;;24.40;11.57;;;;;;;-1.32;83.87;99621.55;1776079;78;21201;-50
2020/12/13 00:36:52;;;;;;;23.50;11.07;;;;;;;-1.32;83.88;99622.87;1781324;78;21170;-54
2020/12/13 00:39:19;;;;;;;24.47;11.57;;;;;;;-1.29;83.93;99619.35;1778307;78;21216;-55
2020/12/13 00:41:53;;;;;;;25.57;12.37;;;;;;;-1.27;83.89;99617.56;1776185;78;21730;-50
2020/12/13 00:44:21;;;;;;;20.50;11.10;;;;;;;-1.29;83.89;99610.98;1782240;78;21190;-49
2020/12/13 00:46:48;;;;;;;27.13;11.60;;;;;;;-1.30;83.97;99617.59;1775908;78;21164;-49
2020/12/13 00:49:16;;;;;;;24.23;11.50;;;;;;;-1.30;84.02;99610.98;1780590;78;21837;-52
2020/12/13 00:51:43;;;;;;;25.80;12.00;;;;;;;-1.29;84.06;99604.39;1743420;80;21200;-50
2020/12/13 00:54:10;;;;;;;29.20;13.73;;;;;;;-1.27;84.06;99606.55;1780951;78;21750;-53
2020/12/13 00:56:38;;;;;;;27.03;12.03;;;;;;;-1.25;84.04;99605.23;1777387;78;21174;-53
2020/12/13 00:59:06;;;;;;;19.80;11.77;;;;;;;-1.24;84.00;99600.39;1783120;78;21275;-52
2020/12/13 01:01:33;;;;;;;21.37;10.47;;;;;;;-1.23;84.00;99602.16;1780078;78;21249;-49
2020/12/13 01:04:00;;;;;;;25.20;12.00;;;;;;;-1.23;83.97;99600.39;1737683;80;21201;-50
2020/12/13 01:06:29;;;;;;;19.07;9.57;;;;;;;-1.22;83.97;99600.84;1778627;78;22302;-51
2020/12/13 01:08:56;;;;;;;20.07;10.77;;;;;;;-1.20;83.97;99604.36;1781034;77;21201;-51
2020/12/13 01:11:29;;;;;;;16.97;10.03;;;;;;;-1.19;83.95;99599.48;1784162;77;21182;-48
2020/12/13 01:13:57;;;;;;;24.10;9.57;;;;;;;-1.20;83.92;99604.36;1785601;77;21476;-50
2020/12/13 01:16:27;;;;;;;26.03;11.93;;;;;;;-1.21;83.93;99605.23;1790020;77;21008;-48
2020/12/13 01:18:55;;;;;;;23.50;12.87;;;;;;;-1.21;83.99;99597.75;1792756;77;21978;-50
2020/12/13 01:21:24;;;;;;;24.17;12.90;;;;;;;-1.20;83.97;99594.23;1785327;77;21431;-48
2020/12/13 01:23:52;;;;;;;19.70;9.47;;;;;;;-1.22;83.97;99582.35;1787466;77;21098;-47
2020/12/13 01:26:20;;;;;;;18.97;10.10;;;;;;;-1.22;84.12;99587.63;1791690;77;21178;-52
2020/12/13 01:28:47;;;;;;;16.43;10.10;;;;;;;-1.18;84.21;99584.52;1789545;77;21608;-48
2020/12/13 01:31:16;;;;;;;19.63;9.87;;;;;;;-1.16;84.20;99592.00;1732094;81;21476;-47
2020/12/13 01:33:44;;;;;;;18.13;8.87;;;;;;;-1.19;84.18;99579.67;1752367;79;21758;-48
2020/12/13 01:36:18;;;;;;;19.10;10.00;;;;;;;-1.16;84.15;99581.44;1750078;79;21167;-49
2020/12/13 01:38:46;;;;;;;25.03;11.37;;;;;;;-1.18;84.13;99579.23;1743721;79;21246;-49
2020/12/13 01:41:15;;;;;;;21.53;10.00;;;;;;;-1.17;84.18;99581.87;1746995;79;22175;-49
2020/12/13 01:44:00;;;;;;;19.87;10.13;;;;;;;-1.18;84.16;99573.52;1748799;79;21539;-49
2020/12/13 01:46:28;;;;;;;17.90;9.93;;;;;;;-1.15;84.15;99569.98;1747534;79;20976;-51
2020/12/13 01:49:04;;;;;;;22.20;10.03;;;;;;;-1.17;84.20;99569.11;1748359;79;21166;-50
2020/12/13 01:51:52;;;;;;;18.80;9.60;;;;;;;-1.15;84.19;99573.52;1749125;79;21186;-51
2020/12/13 01:54:15;;;;;;;18.43;9.77;;;;;;;-1.11;84.23;99566.91;1745035;79;21240;-51
2020/12/13 01:56:49;;;;;;;20.07;10.20;;;;;;;-1.09;84.25;99563.34;1748848;79;21396;-49
2020/12/13 01:59:17;;;;;;;20.17;10.50;;;;;;;-1.09;84.23;99558.51;1746759;79;21274;-51
2020/12/13 02:01:58;;;;;;;16.27;9.20;;;;;;;-1.09;84.10;99562.03;1750266;79;20996;-49
2020/12/13 02:04:27;;;;;;;18.67;9.07;;;;;;;-1.11;84.15;99571.75;1750278;79;21141;-49
2020/12/13 02:06:54;;;;;;;14.90;8.03;;;;;;;-1.11;84.19;99575.71;1744083;79;21750;-53
2020/12/13 02:09:24;;;;;;;19.90;11.03;;;;;;;-1.09;84.21;99582.28;1747723;79;22856;-49
2020/12/13 02:11:53;;;;;;;19.67;9.43;;;;;;;-1.08;84.22;99589.33;1748116;79;21118;-48
2020/12/13 02:14:20;;;;;;;14.73;7.93;;;;;;;-1.05;84.23;99578.76;1750750;79;21158;-52
2020/12/13 02:16:48;;;;;;;17.67;10.37;;;;;;;-1.03;84.16;99575.23;1743724;79;21186;-54
2020/12/13 02:19:16;;;;;;;18.43;9.23;;;;;;;-1.00;84.19;99575.20;1746365;79;21805;-53
2020/12/13 02:21:46;;;;;;;14.17;7.97;;;;;;;-0.99;84.17;99576.96;1748245;79;21131;-50
2020/12/13 02:24:13;;;;;;;14.50;8.37;;;;;;;-0.97;84.14;99569.03;1750649;79;21134;-54
2020/12/13 02:26:41;;;;;;;13.43;8.10;;;;;;;-0.97;84.13;99569.91;1752537;79;21131;-53
2020/12/13 02:29:08;;;;;;;15.10;7.97;;;;;;;-0.95;84.13;99568.59;1745224;79;21130;-53
2020/12/13 02:31:36;;;;;;;14.43;8.00;;;;;;;-0.93;84.09;99563.70;1753515;79;21126;-54
2020/12/13 02:34:04;;;;;;;14.90;8.27;;;;;;;-0.92;84.14;99564.15;1726088;79;21615;-53
2020/12/13 02:36:31;;;;;;;19.73;9.67;;;;;;;-0.88;84.23;99571.19;1745024;79;21212;-53
2020/12/13 02:38:59;;;;;;;14.40;7.67;;;;;;;-0.87;84.24;99570.30;1742978;79;21593;-53
2020/12/13 02:41:27;;;;;;;13.00;8.17;;;;;;;-0.84;84.22;99572.91;1750173;79;21103;-54
2020/12/13 02:43:54;;;;;;;19.43;10.30;;;;;;;-0.82;84.21;99574.23;1745034;79;21493;-53
2020/12/13 02:46:21;;;;;;;17.63;9.53;;;;;;;-0.81;84.20;99568.94;1746771;79;21264;-53
2020/12/13 02:48:49;;;;;;;16.60;9.70;;;;;;;-0.81;84.22;99568.06;1749416;79;22148;-54
2020/12/13 02:51:16;;;;;;;19.83;10.03;;;;;;;-0.79;84.23;99559.69;1746657;79;21154;-53
2020/12/13 02:53:43;;;;;;;17.43;9.40;;;;;;;-0.80;84.27;99562.77;1748849;79;21206;-53
2020/12/13 02:56:10;;;;;;;15.30;7.70;;;;;;;-0.80;84.30;99557.93;1745728;79;21198;-53
2020/12/13 02:58:38;;;;;;;15.73;8.43;;;;;;;-0.82;84.34;99573.78;1746447;79;22574;-53
2020/12/13 03:01:05;;;;;;;14.77;7.77;;;;;;;-0.82;84.40;99583.03;1748537;79;21182;-53
2020/12/13 03:03:32;;;;;;;13.03;8.87;;;;;;;-0.78;84.47;99585.23;1751504;79;21653;-53
2020/12/13 03:06:00;;;;;;;16.70;8.43;;;;;;;-0.78;84.53;99587.44;1769971;78;22063;-53
2020/12/13 03:08:27;;;;;;;15.40;8.60;;;;;;;-0.77;84.53;99583.88;1788583;77;21154;-54
2020/12/13 03:10:56;;;;;;;15.10;8.10;;;;;;;-0.75;84.56;99586.52;1787392;77;21376;-53
2020/12/13 03:13:23;;;;;;;13.67;7.87;;;;;;;-0.73;84.53;99586.52;1788630;77;21202;-54
2020/12/13 03:15:50;;;;;;;9.87;6.17;;;;;;;-0.73;84.55;99584.75;1728294;79;21566;-53
2020/12/13 03:18:17;;;;;;;13.43;7.50;;;;;;;-0.71;84.53;99581.66;1748181;79;21235;-54
2020/12/13 03:20:45;;;;;;;16.27;8.70;;;;;;;-0.68;84.59;99570.20;1750491;79;21652;-53
2020/12/13 03:23:12;;;;;;;15.00;8.93;;;;;;;-0.66;84.64;99570.61;1747995;79;21628;-53
2020/12/13 03:25:39;;;;;;;15.63;8.37;;;;;;;-0.65;84.66;99558.27;1748033;79;22038;-53
2020/12/13 03:28:06;;;;;;;18.07;8.40;;;;;;;-0.65;84.65;99552.98;1745207;79;22601;-54
2020/12/13 03:30:33;;;;;;;14.03;7.67;;;;;;;-0.64;84.63;99552.10;1745937;79;21903;-54
2020/12/13 03:33:00;;;;;;;14.60;8.77;;;;;;;-0.65;84.64;99551.66;1750876;79;21166;-54
2020/12/13 03:35:27;;;;;;;14.60;8.30;;;;;;;-0.66;84.73;99549.91;1745858;79;22141;-54
2020/12/13 03:37:54;;;;;;;14.77;7.63;;;;;;;-0.64;84.77;99552.98;1790498;77;21213;-53
2020/12/13 03:40:22;;;;;;;10.83;6.33;;;;;;;-0.62;84.73;99549.89;1734633;81;21165;-54
2020/12/13 03:42:49;;;;;;;10.93;7.07;;;;;;;-0.60;84.80;99544.16;1751371;79;21180;-54
2020/12/13 03:45:17;;;;;;;15.23;9.20;;;;;;;-0.57;84.87;99550.72;1747766;79;21401;-53
2020/12/13 03:47:46;;;;;;;11.03;7.47;;;;;;;-0.56;84.90;99545.88;1743387;79;21261;-53
2020/12/13 03:50:13;;;;;;;15.23;8.73;;;;;;;-0.52;84.91;99550.27;1752045;79;21178;-53
2020/12/13 03:52:41;;;;;;;15.67;8.87;;;;;;;-0.49;84.85;99550.66;1746713;79;21198;-54
2020/12/13 03:55:08;;;;;;;14.90;7.40;;;;;;;-0.49;84.85;99549.34;1745879;79;21167;-53
2020/12/13 03:57:35;;;;;;;12.90;7.90;;;;;;;-0.46;84.84;99553.30;1747384;79;21143;-54
2020/12/13 04:00:04;;;;;;;9.97;6.83;;;;;;;-0.44;84.88;99552.85;1749058;79;21229;-54
2020/12/13 04:02:33;;;;;;;11.83;6.80;;;;;;;-0.42;84.91;99562.51;1789417;77;21250;-53
2020/12/13 04:05:00;;;;;;;10.40;7.23;;;;;;;-0.39;84.92;99558.53;1791548;77;21619;-54
2020/12/13 04:07:27;;;;;;;13.50;8.57;;;;;;;-0.36;84.95;99563.38;1790358;77;22018;-54
2020/12/13 04:09:54;;;;;;;12.27;6.40;;;;;;;-0.35;84.92;99570.42;1790822;77;21462;-54
2020/12/13 04:12:22;;;;;;;14.87;7.20;;;;;;;-0.33;84.87;99565.53;1788684;77;21592;-54
2020/12/13 04:14:50;;;;;;;11.17;6.63;;;;;;;-0.31;84.87;99561.55;1794218;77;21201;-54
2020/12/13 04:17:19;;;;;;;9.50;6.97;;;;;;;-0.30;84.94;99565.52;1792961;77;21182;-54
2020/12/13 04:19:46;;;;;;;11.03;6.27;;;;;;;-0.28;84.97;99568.16;1794007;77;21201;-53
2020/12/13 04:22:14;;;;;;;12.67;7.40;;;;;;;-0.26;85.08;99567.70;1788479;77;21536;-53
2020/12/13 04:24:41;;;;;;;12.23;7.90;;;;;;;-0.23;85.11;99566.34;1793032;77;22299;-54
2020/12/13 04:27:08;;;;;;;11.97;7.03;;;;;;;-0.20;85.09;99557.95;1751104;79;21182;-53
2020/12/13 04:29:38;;;;;;;6.97;5.00;;;;;;;-0.17;85.07;99553.94;1793117;77;21190;-53
2020/12/13 04:32:05;;;;;;;12.07;6.87;;;;;;;-0.13;85.14;99551.71;1748851;79;21672;-54
2020/12/13 04:34:33;;;;;;;10.53;6.57;;;;;;;-0.11;85.17;99549.94;1790351;77;21182;-54
2020/12/13 04:37:00;;;;;;;13.83;7.23;;;;;;;-0.13;85.21;99546.42;1779391;78;21200;-53
2020/12/13 04:39:27;;;;;;;9.93;6.90;;;;;;;-0.14;85.23;99556.56;1773027;78;21208;-54
2020/12/13 04:41:55;;;;;;;11.73;6.63;;;;;;;-0.10;85.21;99562.28;1770476;78;21780;-54
2020/12/13 04:44:23;;;;;;;11.17;7.10;;;;;;;-0.08;85.24;99571.50;1788538;77;21197;-54
2020/12/13 04:46:52;;;;;;;14.50;6.70;;;;;;;-0.08;85.30;99563.56;1775721;78;21741;-54
2020/12/13 04:49:23;;;;;;;11.17;7.67;;;;;;;-0.06;85.31;99568.41;1796120;77;21331;-54
2020/12/13 04:51:51;;;;;;;11.13;7.77;;;;;;;-0.01;85.35;99562.20;1778132;78;21219;-54
2020/12/13 04:54:22;;;;;;;14.40;8.53;;;;;;;0.03;85.36;99563.03;1770659;78;21228;-54
2020/12/13 04:56:51;;;;;;;11.90;7.97;;;;;;;0.05;85.38;99565.23;1777513;78;21167;-54
2020/12/13 04:59:18;;;;;;;11.27;7.27;;;;;;;0.10;85.36;99562.52;1788054;77;21671;-54
2020/12/13 05:01:46;;;;;;;11.93;8.03;;;;;;;0.12;85.36;99557.66;1776948;78;22431;-54
2020/12/13 05:04:14;;;;;;;13.90;7.33;;;;;;;0.15;85.43;99558.08;1773886;78;21493;-54
2020/12/13 05:06:43;;;;;;;11.40;8.33;;;;;;;0.17;85.48;99551.86;1786337;77;22653;-54
2020/12/13 05:09:12;;;;;;;14.53;9.20;;;;;;;0.19;85.53;99551.41;1775525;78;21176;-56
2020/12/13 05:11:43;;;;;;;16.27;10.33;;;;;;;0.19;85.56;99557.14;1790277;77;21698;-55
2020/12/13 05:14:11;;;;;;;19.73;10.13;;;;;;;0.20;85.58;99554.94;1792228;77;21210;-54
2020/12/13 05:16:38;;;;;;;14.83;9.10;;;;;;;0.22;85.57;99558.45;1788110;77;21086;-54
2020/12/13 05:19:06;;;;;;;15.97;9.00;;;;;;;0.24;85.60;99560.20;1793421;77;21110;-54
2020/12/13 05:21:34;;;;;;;13.57;8.33;;;;;;;0.26;85.67;99565.01;1790470;77;21636;-54
2020/12/13 05:24:05;;;;;;;15.50;9.00;;;;;;;0.28;85.72;99561.91;1774765;77;21103;-54
2020/12/13 05:26:33;;;;;;;16.80;10.40;;;;;;;0.32;85.75;99566.73;1793608;77;22217;-55
2020/12/13 05:29:03;;;;;;;17.93;11.10;;;;;;;0.34;85.77;99560.99;1790540;77;22354;-54
2020/12/13 05:31:32;;;;;;;19.10;11.33;;;;;;;0.36;85.78;99562.70;1772824;79;21141;-55
2020/12/13 05:36:29;;;;;;;21.43;12.10;;;;;;;0.37;85.75;99560.49;1791237;77;21208;-54
2020/12/13 05:38:58;;;;;;;18.03;10.90;;;;;;;0.40;85.76;99561.36;1798171;77;22082;-54
2020/12/13 05:41:30;;;;;;;21.10;10.83;;;;;;;0.41;85.79;99561.80;1788323;77;21869;-54
2020/12/13 05:50:00;;;;;;;19.90;12.13;;;;;;;0.49;85.85;99555.97;1795145;77;21432;-55
2020/12/13 05:52:14;;;;;;;22.90;12.67;;;;;;;0.48;85.83;99560.83;1785439;77;21233;-55
2020/12/13 05:54:42;;;;;;;21.07;11.97;;;;;;;0.50;85.78;99565.23;1789300;77;21262;-55
2020/12/13 05:57:09;;;;;;;20.33;10.57;;;;;;;0.52;85.79;99570.48;1788325;77;21110;-55
2020/12/13 05:59:37;;;;;;;19.07;10.23;;;;;;;0.55;85.79;99562.52;1784860;77;21606;-55
2020/12/13 06:02:05;;;;;;;19.47;10.53;;;;;;;0.58;85.83;99563.38;1791055;77;21137;-55
2020/12/13 06:04:32;;;;;;;19.17;10.43;;;;;;;0.59;85.81;99562.48;1786960;77;21765;-55
2020/12/13 06:07:04;;;;;;;16.10;9.97;;;;;;;0.60;85.78;99561.56;1791629;77;21198;-55
2020/12/13 06:09:36;;;;;;;15.23;8.67;;;;;;;0.61;85.75;99563.31;1788057;77;21141;-58
2020/12/13 06:12:05;;;;;;;16.20;9.20;;;;;;;0.60;85.70;99562.88;1781776;78;21725;-56
2020/12/13 06:14:33;;;;;;;12.23;7.67;;;;;;;0.63;85.67;99565.51;1780518;78;21715;-57
2020/12/13 06:17:01;;;;;;;17.57;8.73;;;;;;;0.64;85.68;99562.41;1775756;78;21727;-57
2020/12/13 06:19:32;;;;;;;17.37;9.20;;;;;;;0.65;85.69;99561.08;1778377;78;21540;-57
2020/12/13 06:22:03;;;;;;;18.37;10.47;;;;;;;0.70;85.70;99568.51;1779834;78;21142;-58
2020/12/13 06:24:30;;;;;;;22.43;11.30;;;;;;;0.72;85.68;99569.38;1780177;78;21465;-59
2020/12/13 06:26:58;;;;;;;20.03;11.77;;;;;;;0.72;85.65;99573.35;1784845;78;22132;-61
2020/12/13 06:29:27;;;;;;;22.70;12.43;;;;;;;0.71;85.60;99572.92;1752477;78;21602;-56
2020/12/13 06:31:54;;;;;;;22.33;10.90;;;;;;;0.70;85.60;99571.61;1780115;78;21235;-56
2020/12/13 06:34:21;;;;;;;20.77;10.73;;;;;;;0.70;85.57;99569.84;1779272;78;21186;-55
2020/12/13 06:36:49;;;;;;;21.00;11.33;;;;;;;0.70;85.58;99571.61;1739899;80;21204;-56
2020/12/13 06:39:17;;;;;;;23.07;11.83;;;;;;;0.69;85.61;99566.75;1760120;78;21181;-55
2020/12/13 06:41:51;;;;;;;18.53;11.20;;;;;;;0.72;85.66;99564.53;1777841;78;21746;-56
2020/12/13 06:44:18;;;;;;;25.77;13.10;;;;;;;0.73;85.63;99563.64;1780961;78;21111;-56
2020/12/13 06:46:47;;;;;;;24.47;13.07;;;;;;;0.77;85.66;99564.48;1777291;78;21236;-56
2020/12/13 06:49:17;;;;;;;30.60;13.50;;;;;;;0.77;85.63;99567.14;1788308;78;21186;-56
2020/12/13 06:51:45;;;;;;;27.37;14.10;;;;;;;0.77;85.63;99568.47;1776111;78;21114;-56
2020/12/13 06:54:14;;;;;;;26.97;13.30;;;;;;;0.74;85.59;99571.57;1779090;78;22032;-57
2020/12/13 06:56:42;;;;;;;23.30;13.33;;;;;;;0.75;85.58;99572.00;1780908;78;21217;-56
2020/12/13 06:59:10;;;;;;;29.37;15.30;;;;;;;0.75;85.61;99578.62;1778025;78;21094;-57
2020/12/13 07:01:42;;;;;;;22.30;12.73;;;;;;;0.74;85.61;99573.34;1779448;78;21130;-56
2020/12/13 07:04:27;;;;;;;30.27;14.57;;;;;;;0.75;85.64;99580.40;1782919;78;21710;-56
2020/12/13 07:09:31;;;;;;;35.52;21.97;;;;;;;0.78;85.75;99566.22;1843844;74;28431;-56
2020/12/13 07:12:01;;;;;;;31.67;16.83;;;;;;;0.79;85.70;99571.95;1772050;79;21043;-56
2020/12/13 07:14:30;;;;;;;29.23;14.77;;;;;;;0.87;85.58;99569.63;1763629;79;22317;-56
2020/12/13 07:17:06;;;;;;;27.83;13.77;;;;;;;0.89;85.55;99571.83;1758770;79;21407;-55
2020/12/13 07:19:35;;;;;;;24.83;14.33;;;;;;;0.90;85.54;99574.03;1744803;79;21413;-55
2020/12/13 07:22:11;;;;;;;30.07;15.47;;;;;;;0.91;85.57;99575.34;1766385;79;21182;-56
2020/12/13 07:24:41;;;;;;;30.73;16.67;;;;;;;0.91;85.57;99578.44;1758786;79;20983;-56
2020/12/13 07:27:09;;;;;;;37.40;16.40;;;;;;;0.90;85.56;99575.36;1760422;79;21534;-56
2020/12/13 07:29:36;;;;;;;36.70;17.87;;;;;;;0.85;85.57;99576.72;1761706;79;21147;-55
2020/12/13 07:32:04;;;;;;;31.40;16.77;;;;;;;0.83;85.55;99579.86;1760971;79;21660;-55
2020/12/13 07:34:32;;;;;;;33.77;17.07;;;;;;;0.83;85.54;99583.83;1758518;79;21401;-56
2020/12/13 07:36:59;;;;;;;31.17;16.67;;;;;;;0.82;85.58;99590.02;1765233;79;22101;-55
2020/12/13 07:39:30;;;;;;;27.97;14.87;;;;;;;0.82;85.64;99591.80;1759135;79;21206;-55
2020/12/13 07:41:58;;;;;;;35.60;18.17;;;;;;;0.85;85.72;99591.77;1759231;79;21226;-55
2020/12/13 07:44:32;;;;;;;37.63;18.45;;;;;;;0.86;85.70;99590.84;1760515;79;21187;-55
2020/12/13 07:46:59;;;;;;;39.83;20.23;;;;;;;0.86;85.72;99592.17;1760230;79;21174;-55
2020/12/13 07:49:27;;;;;;;33.93;18.37;;;;;;;0.86;85.71;99590.41;1762800;79;22734;-55
2020/12/13 07:51:56;;;;;;;31.33;17.37;;;;;;;0.86;85.67;99596.14;1759282;79;21202;-55
2020/12/13 07:54:29;;;;;;;37.47;18.00;;;;;;;0.86;85.66;99603.65;1761537;79;21186;-55
2020/12/13 07:57:15;;;;;;;35.93;18.30;;;;;;;0.85;85.69;99595.27;1768156;79;21198;-56
2020/12/13 07:59:40;;;;;;;34.10;17.03;;;;;;;0.84;85.72;99600.16;1743441;79;21651;-56
2020/12/13 08:02:09;;;;;;;35.10;18.63;;;;;;;0.86;85.75;99604.98;1760648;79;21426;-55
2020/12/13 08:04:41;;;;;;;44.80;21.60;;;;;;;0.88;85.78;99603.64;1690665;79;21223;-55
2020/12/13 08:07:12;;;;;;;40.57;23.27;;;;;;;0.90;85.79;99596.55;1754918;79;21202;-55
2020/12/13 08:09:43;;;;;;;45.57;20.53;;;;;;;0.92;85.78;99598.75;1744111;80;21143;-55
2020/12/13 08:12:13;;;;;;;39.43;20.63;;;;;;;0.89;85.71;99598.77;1743170;80;21095;-55
2020/12/13 08:14:40;;;;;;;40.20;21.13;;;;;;;0.88;85.67;99597.89;1744322;80;21218;-56
2020/12/13 08:17:08;;;;;;;39.50;19.03;;;;;;;0.86;85.67;99598.35;1739407;80;21383;-56
2020/12/13 08:19:44;;;;;;;37.63;19.93;;;;;;;0.87;85.71;99604.08;1739200;80;21217;-55
2020/12/13 08:22:18;;;;;;;;;;;;;;;0.88;85.74;99599.22;1743844;80;21155;-55
2020/12/13 08:25:04;;;;;;;36.60;17.50;;;;;;;0.90;85.77;99598.76;1745149;80;28711;-56
2020/12/13 08:27:34;;;;;;;40.13;21.47;;;;;;;0.93;85.75;99599.18;1751864;80;21171;-55
2020/12/13 08:30:01;;;;;;;39.33;20.50;;;;;;;0.95;85.78;99601.34;1747863;80;21716;-56
2020/12/13 08:32:34;;;;;;;42.60;20.57;;;;;;;0.94;85.73;99596.48;1714043;80;21178;-55
2020/12/13 08:35:20;;;;;;;44.87;22.30;;;;;;;0.95;85.71;99596.04;1748436;80;21171;-56
2020/12/13 08:37:56;;;;;;;40.37;21.93;;;;;;;0.92;85.67;99595.65;1739525;80;21178;-57
2020/12/13 08:40:43;;;;;;;40.70;20.43;;;;;;;0.94;85.63;99587.66;1742994;80;21628;-56
2020/12/13 08:43:17;;;;;;;39.20;19.33;;;;;;;0.94;85.61;99587.20;1743302;80;22833;-56
2020/12/13 08:45:41;;;;;;;34.97;19.10;;;;;;;0.95;85.62;99584.11;1743040;80;21185;-56
2020/12/13 08:48:09;;;;;;;35.60;20.60;;;;;;;0.95;85.62;99590.30;1743168;80;21179;-56
2020/12/13 08:50:41;;;;;;;38.30;20.80;;;;;;;0.95;85.65;99588.97;1742940;80;21245;-56
2020/12/13 08:53:25;;;;;;;40.07;19.97;;;;;;;0.94;85.65;99585.00;1739957;80;21661;-57
2020/12/13 08:56:06;;;;;;;32.10;16.82;;;;;;;0.91;85.63;99588.59;1745705;80;21244;-55
2020/12/13 09:01:39;;;;;;;28.35;19.32;;;;;;;0.95;85.59;99570.86;1848938;75;28247;-56
2020/12/13 09:04:23;;;;;;;35.03;17.60;;;;;;;0.96;85.55;99576.59;1838233;76;21194;-57
2020/12/13 09:07:01;;;;;;;27.03;15.10;;;;;;;1.03;85.48;99576.94;1839629;76;22370;-57
2020/12/13 09:09:32;;;;;;;22.60;15.30;;;;;;;1.05;85.43;99577.80;1844271;76;21176;-54
2020/12/13 09:12:02;;;;;;;26.57;12.70;;;;;;;1.04;85.34;99569.42;1844017;76;20980;-58
2020/12/13 09:14:34;;;;;;;26.67;13.07;;;;;;;1.02;85.28;99569.92;1843032;76;21166;-57
2020/12/13 09:17:01;;;;;;;25.23;13.00;;;;;;;1.02;85.26;99564.14;1784723;78;21487;-57
2020/12/13 09:19:29;;;;;;;24.47;12.57;;;;;;;1.04;85.29;99566.77;1778178;78;21580;-57
2020/12/13 09:22:00;;;;;;;17.97;10.10;;;;;;;1.06;85.30;99564.98;1778943;78;21226;-57
2020/12/13 09:24:32;;;;;;;26.37;13.90;;;;;;;1.09;85.26;99564.52;1770774;79;21226;-56
2020/12/13 09:27:03;;;;;;;32.93;15.60;;;;;;;1.12;85.21;99551.20;1780262;79;21082;-56
2020/12/13 09:29:31;;;;;;;27.33;17.40;;;;;;;1.10;85.16;99558.77;1801667;78;21091;-56
2020/12/13 09:31:58;;;;;;;29.73;16.47;;;;;;;1.05;85.09;99548.20;1778939;78;21204;-56
2020/12/13 09:34:26;;;;;;;32.57;14.43;;;;;;;1.04;85.13;99554.84;1773684;79;21206;-56
2020/12/13 09:36:53;;;;;;;25.93;13.37;;;;;;;1.04;85.06;99553.08;1767645;78;21617;-56
2020/12/13 09:39:22;;;;;;;28.90;14.37;;;;;;;1.03;85.06;99555.73;1784002;78;21497;-56
2020/12/13 09:41:49;;;;;;;35.03;15.20;;;;;;;1.03;85.10;99551.77;1784393;79;21186;-56
2020/12/13 09:44:17;;;;;;;25.43;12.20;;;;;;;1.02;85.08;99550.03;1754157;79;22276;-56
2020/12/13 09:46:44;;;;;;;30.37;15.80;;;;;;;1.01;85.14;99545.63;1785900;79;21114;-56
2020/12/13 09:49:12;;;;;;;34.60;18.07;;;;;;;1.02;85.12;99538.95;1785457;79;21694;-58
2020/12/13 09:51:39;;;;;;;31.57;17.53;;;;;;;1.00;85.06;99536.80;1784892;79;21206;-58
2020/12/13 09:54:06;;;;;;;34.07;17.70;;;;;;;0.96;85.06;99539.05;1785318;79;21190;-58
2020/12/13 09:56:33;;;;;;;30.37;13.90;;;;;;;0.94;85.08;99535.53;1782900;78;21241;-58
2020/12/13 09:59:00;;;;;;;25.60;13.90;;;;;;;0.95;85.06;99533.76;1784406;79;21232;-57
2020/12/13 10:01:28;;;;;;;28.67;13.50;;;;;;;0.96;85.09;99524.47;1771541;79;21191;-58
2020/12/13 10:03:56;;;;;;;29.60;14.40;;;;;;;0.99;85.08;99524.44;1775777;80;21840;-57
2020/12/13 10:06:36;;;;;;;29.10;15.23;;;;;;;1.01;85.06;99523.98;1776468;80;21174;-58
2020/12/13 10:09:04;;;;;;;31.77;17.13;;;;;;;1.03;85.08;99522.16;1774198;80;21399;-58
2020/12/13 10:11:30;;;;;;;32.57;16.73;;;;;;;1.03;85.03;99519.95;1770192;80;21748;-57
2020/12/13 10:13:57;;;;;;;38.77;19.13;;;;;;;1.03;85.03;99523.93;1770974;80;21425;-57
2020/12/13 10:16:25;;;;;;;34.13;14.03;;;;;;;1.02;85.00;99527.03;1772549;80;21222;-58
2020/12/13 10:18:54;;;;;;;24.70;14.20;;;;;;;1.04;84.94;99529.22;1772258;80;21188;-58
2020/12/13 10:21:26;;;;;;;28.63;14.50;;;;;;;1.03;84.88;99524.81;1772796;80;22084;-59
2020/12/13 10:26:31;;;;;;;32.10;15.33;;;;;;;1.04;84.91;99517.73;1795899;78;26899;-60
2020/12/13 10:29:01;;;;;;;33.07;17.90;;;;;;;0.97;84.91;99522.70;1771083;79;21525;-59
2020/12/13 10:31:32;;;;;;;35.87;16.90;;;;;;;0.95;84.95;99530.66;1764502;79;23645;-60
2020/12/13 10:34:00;;;;;;;34.27;16.27;;;;;;;0.92;84.98;99530.73;1768730;79;20945;-60
2020/12/13 10:36:27;;;;;;;30.83;14.57;;;;;;;0.94;84.93;99523.61;1720396;81;21019;-61
2020/12/13 10:38:55;;;;;;;24.97;12.97;;;;;;;0.95;84.91;99526.69;1736144;81;21291;-61
2020/12/13 10:41:22;;;;;;;27.53;15.47;;;;;;;0.95;84.95;99520.06;1737358;81;21127;-60
2020/12/13 10:43:49;;;;;;;25.83;14.07;;;;;;;0.98;84.99;99524.45;1712897;81;21496;-60
2020/12/13 10:46:17;;;;;;;33.87;15.17;;;;;;;1.00;84.98;99524.88;1732884;81;21028;-60
2020/12/13 10:48:45;;;;;;;31.73;17.20;;;;;;;1.04;84.96;99522.59;1720689;82;21045;-59
2020/12/13 10:51:17;;;;;;;35.23;18.83;;;;;;;1.05;84.93;99523.47;1721974;82;21657;-58
2020/12/13 10:53:44;;;;;;;27.83;15.93;;;;;;;1.03;84.83;99522.16;1715428;82;21169;-59
2020/12/13 10:56:11;;;;;;;30.33;15.90;;;;;;;1.01;84.77;99516.03;1719067;82;21264;-59
2020/12/13 10:58:43;;;;;;;30.57;14.83;;;;;;;1.01;84.79;99510.73;1717622;81;21191;-58
2020/12/13 11:01:11;;;;;;;31.57;15.67;;;;;;;1.03;84.77;99513.33;1733319;81;21198;-59
2020/12/13 11:03:38;;;;;;;29.13;14.43;;;;;;;1.04;84.76;99513.77;1734266;81;21195;-60
2020/12/13 11:06:08;;;;;;;24.97;13.90;;;;;;;1.05;84.75;99513.75;1713547;81;21725;-58
2020/12/13 11:08:37;;;;;;;29.43;16.33;;;;;;;1.09;84.77;99522.09;1692167;81;21183;-60
2020/12/13 11:11:05;;;;;;;29.43;15.83;;;;;;;1.12;84.72;99518.50;1686566;82;21222;-58
2020/12/13 11:13:33;;;;;;;31.57;17.20;;;;;;;1.12;84.62;99515.41;1695331;82;21142;-59
2020/12/13 11:16:01;;;;;;;27.67;13.47;;;;;;;1.10;84.57;99511.92;1691853;82;21557;-59
2020/12/13 11:18:33;;;;;;;23.27;12.77;;;;;;;1.11;84.51;99513.66;1662475;84;21001;-58
2020/12/13 11:21:01;;;;;;;20.67;11.43;;;;;;;1.12;84.49;99517.18;1668395;84;21343;-58
2020/12/13 11:23:28;;;;;;;19.30;9.87;;;;;;;1.13;84.50;99525.12;1688432;82;21230;-58
2020/12/13 11:25:55;;;;;;;20.73;10.67;;;;;;;1.13;84.48;99513.64;1687260;82;21220;-57
2020/12/13 11:28:22;;;;;;;20.60;11.80;;;;;;;1.17;84.45;99513.16;1685942;83;21488;-57
2020/12/13 11:30:50;;;;;;;27.37;13.23;;;;;;;1.18;84.37;99513.14;1654440;84;21207;-60
2020/12/13 11:33:17;;;;;;;36.80;19.13;;;;;;;1.14;84.35;99512.74;1682560;83;23501;-58
2020/12/13 11:35:44;;;;;;;28.43;16.03;;;;;;;1.12;84.33;99511.43;1679963;83;21219;-59
2020/12/13 11:38:12;;;;;;;26.47;15.67;;;;;;;1.10;84.31;99521.20;1654927;84;21198;-59
2020/12/13 11:40:39;;;;;;;17.90;10.20;;;;;;;1.10;84.27;99515.03;1729611;80;21448;-60
2020/12/13 11:43:06;;;;;;;17.37;9.53;;;;;;;1.10;84.30;99513.25;1724661;80;21203;-59
2020/12/13 11:45:34;;;;;;;19.97;8.63;;;;;;;1.13;84.31;99520.27;1731531;80;21205;-59
2020/12/13 11:48:02;;;;;;;15.93;9.57;;;;;;;1.14;84.27;99520.25;1729332;80;21183;-58
2020/12/13 11:50:29;;;;;;;22.47;13.67;;;;;;;1.16;84.29;99514.05;1725759;80;21534;-59